KFWA/FWA METAR and TAF weather

Enter ICAO airport designator
Station Type Date Time Source
KFWA METAR 2019/08/18 19:54 UTC NOAA

KFWA 181954Z 22009KT 10SM FEW035 FEW150 BKN230 28/23 A2988 RMK AO2 SLP113 T02830228 $


Station Type Date Time Source
KFWA Decoded METAR 2019/08/18 19:54 UTC NOAA

Station name not available
Aug 18, 2019 - 03:54 PM EDT / 2019.08.18 1954 UTC
Wind: from the SW (220 degrees) at 10 MPH (9 KT):0
Visibility: 10 mile(s):0
Sky conditions: mostly cloudy
Temperature: 82.9 F (28.3 C)
Dew Point: 73.0 F (22.8 C)
Relative Humidity: 72%
Pressure (altimeter): 29.88 in. Hg (1011 hPa)
ob: KFWA 181954Z 22009KT 10SM FEW035 FEW150 BKN230 28/23 A2988 RMK AO2 SLP113 T02830228
cycle: 20

Station Type Date Time Source
KFWA TAF 2019/08/18 18:22 UTC NOAA

TAF KFWA 181720Z 1818/1918 22011KT P6SM BKN035
FM182000 22011KT P6SM VCTS BKN035CB
TEMPO 1821/1823 2SM TSRA OVC020CB
FM190200 23005KT P6SM SCT030 BKN150

Example: see airport list